Time;durP1;ratioP1;P1;durP2;ratioP2;P2;SDS_P1;SDS_P2;PMS_P1;PMS_P2;Temp;Humidity;BMP_temperature;BMP_pressure;BME280_temperature;BME280_humidity;BME280_pressure;Samples;Min_cycle;Max_cycle;Signal;HPM_P1;HPM_P2
2023/12/08 00:01:31;;;;;;;3.13;1.50;;;;;;;4.93;100.00;100561.00;4951719;28;20397;-71
2023/12/08 00:03:57;;;;;;;1.48;0.90;;;;;;;4.98;100.00;100553.59;4954817;29;20031;-70
2023/12/08 00:06:22;;;;;;;2.83;0.88;;;;;;;4.84;100.00;100516.97;4954052;29;20030;-70
2023/12/08 00:08:48;;;;;;;3.75;1.30;;;;;;;4.73;100.00;100487.31;4955479;29;20023;-70
2023/12/08 00:11:13;;;;;;;4.50;1.92;;;;;;;5.12;100.00;100542.53;4955428;29;20063;-70
2023/12/08 00:13:40;;;;;;;2.08;1.10;;;;;;;5.21;100.00;100546.44;4955658;29;20075;-70
2023/12/08 00:16:06;;;;;;;1.42;0.73;;;;;;;5.27;100.00;100547.69;4954927;29;20114;-70
2023/12/08 00:18:32;;;;;;;1.80;1.00;;;;;;;5.24;100.00;100549.19;4954176;29;20118;-71
2023/12/08 00:20:57;;;;;;;2.10;1.00;;;;;;;5.19;100.00;100556.59;4955629;29;20127;-70
2023/12/08 00:23:23;;;;;;;2.05;1.02;;;;;;;4.61;100.00;100452.53;4955288;29;20023;-70
2023/12/08 00:25:48;;;;;;;1.33;0.90;;;;;;;5.15;100.00;100540.16;4954168;29;20042;-71
2023/12/08 00:28:14;;;;;;;3.97;0.90;;;;;;;5.27;100.00;100550.25;4955490;29;20027;-71
2023/12/08 00:30:40;;;;;;;1.70;1.00;;;;;;;5.33;100.00;100549.72;4955186;29;20448;-71
2023/12/08 00:33:05;;;;;;;2.15;0.90;;;;;;;5.40;100.00;100548.44;4955244;29;20030;-71
2023/12/08 00:35:31;;;;;;;0.80;0.70;;;;;;;5.36;100.00;100542.25;4955048;29;20405;-70
2023/12/08 00:37:57;;;;;;;1.65;0.50;;;;;;;5.36;100.00;100560.16;4955062;29;20042;-70
2023/12/08 00:40:22;;;;;;;5.22;1.25;;;;;;;5.33;100.00;100554.84;4954843;29;20038;-71
2023/12/08 00:42:48;;;;;;;2.85;0.73;;;;;;;4.68;100.00;100462.31;4942680;29;20457;-70
2023/12/08 00:45:15;;;;;;;2.10;1.23;;;;;;;5.14;100.00;100545.19;4955281;29;20035;-70
2023/12/08 00:47:40;;;;;;;1.48;0.73;;;;;;;4.52;100.00;100455.41;4942251;29;20039;-70
2023/12/08 00:50:07;;;;;;;2.30;0.93;;;;;;;5.02;100.00;100574.38;4954524;29;20086;-70
2023/12/08 00:52:32;;;;;;;3.33;1.00;;;;;;;4.97;100.00;100562.97;4948618;29;20039;-70
2023/12/08 00:54:58;;;;;;;1.70;0.85;;;;;;;4.85;100.00;100563.09;4954693;29;20401;-70
2023/12/08 00:57:23;;;;;;;3.50;1.13;;;;;;;4.79;100.00;100566.97;4954409;29;20433;-70
2023/12/08 00:59:49;;;;;;;1.33;0.80;;;;;;;4.82;100.00;100557.81;4954890;29;20031;-70
2023/12/08 01:02:14;;;;;;;1.75;0.85;;;;;;;4.74;100.00;100556.44;4954557;29;20561;-71
2023/12/08 01:04:40;;;;;;;1.73;0.90;;;;;;;4.70;100.00;100557.06;4954553;29;20035;-71
2023/12/08 01:07:05;;;;;;;1.42;0.63;;;;;;;4.61;100.00;100559.91;4954293;29;20035;-70
2023/12/08 01:09:31;;;;;;;1.60;0.73;;;;;;;4.17;100.00;100491.56;4954394;29;20110;-70
2023/12/08 01:11:56;;;;;;;1.20;0.60;;;;;;;4.59;100.00;100573.41;4954392;29;20098;-70
2023/12/08 01:14:22;;;;;;;1.20;0.80;;;;;;;4.62;100.00;100573.56;4953863;28;20106;-70
2023/12/08 01:16:47;;;;;;;2.10;1.00;;;;;;;4.55;100.00;100562.09;4954218;29;20584;-70
2023/12/08 01:19:13;;;;;;;2.75;0.60;;;;;;;4.44;100.00;100558.84;4954330;29;20102;-70
2023/12/08 01:21:40;;;;;;;1.20;0.80;;;;;;;4.47;100.00;100555.59;4954323;29;20039;-70
2023/12/08 01:24:06;;;;;;;1.33;0.60;;;;;;;4.12;100.00;100504.03;4954461;29;20035;-70
2023/12/08 01:26:31;;;;;;;0.55;0.50;;;;;;;4.48;100.00;100562.50;4954045;29;20046;-71
2023/12/08 01:28:57;;;;;;;0.52;0.50;;;;;;;4.47;100.00;100564.13;4936039;29;20429;-70
2023/12/08 01:31:22;;;;;;;1.10;0.60;;;;;;;3.97;100.00;100467.31;4954043;29;20717;-70
2023/12/08 01:33:48;;;;;;;0.50;0.50;;;;;;;4.53;100.00;100554.31;4954241;29;20406;-70
2023/12/08 01:36:14;;;;;;;0.40;0.38;;;;;;;3.99;100.00;100453.84;4953915;29;20405;-70
2023/12/08 01:38:48;;;;;;;1.00;0.90;;;;;;;4.42;100.00;100555.31;4953876;29;20031;-70
2023/12/08 01:41:15;;;;;;;1.10;1.00;;;;;;;3.85;100.00;100458.06;4954139;29;20023;-70
2023/12/08 01:43:42;;;;;;;1.15;1.02;;;;;;;4.34;100.00;100547.16;4954271;29;20031;-70
2023/12/08 01:46:08;;;;;;;0.93;0.88;;;;;;;4.32;100.00;100548.72;4954209;29;20019;-70
2023/12/08 01:48:34;;;;;;;1.33;1.05;;;;;;;4.23;100.00;100548.16;4953294;29;20383;-71
2023/12/08 01:51:01;;;;;;;0.75;0.73;;;;;;;4.27;100.00;100550.09;4953641;29;20133;-71
2023/12/08 01:53:27;;;;;;;0.50;0.50;;;;;;;4.24;100.00;100552.47;4953039;29;20692;-70
2023/12/08 01:55:52;;;;;;;0.95;0.70;;;;;;;4.13;100.00;100541.56;4953660;29;20039;-72
2023/12/08 01:58:18;;;;;;;0.93;0.82;;;;;;;3.90;100.00;100512.03;4954126;29;20458;-73
2023/12/08 02:00:46;;;;;;;0.82;0.65;;;;;;;3.51;100.00;100455.03;4953740;29;20042;-72
2023/12/08 02:03:13;;;;;;;0.70;0.60;;;;;;;4.11;100.00;100568.72;4936383;29;20082;-71
2023/12/08 02:05:41;;;;;;;0.73;0.70;;;;;;;4.00;100.00;100564.56;4953705;29;20038;-71
2023/12/08 02:08:07;;;;;;;0.70;0.70;;;;;;;4.14;100.00;100568.03;4953593;29;20114;-71
2023/12/08 02:10:32;;;;;;;0.63;0.63;;;;;;;4.21;100.00;100567.59;4954023;29;20113;-71
2023/12/08 02:12:59;;;;;;;0.57;0.57;;;;;;;4.16;100.00;100564.78;4953941;29;20031;-71
2023/12/08 02:15:24;;;;;;;0.50;0.50;;;;;;;4.16;100.00;100553.66;4954144;29;20078;-71
2023/12/08 02:17:51;;;;;;;1.40;0.63;;;;;;;4.34;100.00;100572.72;4953370;29;20035;-71
2023/12/08 02:20:18;;;;;;;0.77;0.70;;;;;;;4.42;100.00;100573.19;4953569;29;20031;-71
2023/12/08 02:22:44;;;;;;;1.42;0.80;;;;;;;3.97;100.00;100485.19;4953656;29;20039;-71
2023/12/08 02:25:09;;;;;;;2.53;0.80;;;;;;;4.51;100.00;100575.44;4952770;28;20114;-71
2023/12/08 02:27:35;;;;;;;2.28;1.00;;;;;;;4.58;100.00;100572.50;4953543;29;20489;-71
2023/12/08 02:30:01;;;;;;;0.95;0.65;;;;;;;4.46;100.00;100562.41;4953402;29;20560;-71
2023/12/08 02:32:54;;;;;;;1.00;0.50;;;;;;;4.11;100.00;100486.06;4953411;29;20042;-72
2023/12/08 02:35:20;;;;;;;0.90;0.60;;;;;;;4.66;100.00;100580.63;4953831;29;20070;-72
2023/12/08 02:37:47;;;;;;;1.00;1.00;;;;;;;4.66;100.00;100578.97;4953174;29;20070;-71
2023/12/08 02:40:13;;;;;;;0.77;0.77;;;;;;;4.63;100.00;100572.78;4953298;29;20090;-71
2023/12/08 02:42:39;;;;;;;0.95;0.68;;;;;;;4.60;100.00;100576.03;4953261;29;20449;-71
2023/12/08 02:45:05;;;;;;;1.00;0.85;;;;;;;4.62;100.00;100579.59;4953114;29;20035;-71
2023/12/08 02:47:31;;;;;;;1.20;0.70;;;;;;;4.64;100.00;100580.56;4952943;29;20117;-71
2023/12/08 02:49:56;;;;;;;0.93;0.70;;;;;;;4.59;100.00;100574.28;4953246;29;20561;-71
2023/12/08 02:52:22;;;;;;;1.67;0.82;;;;;;;4.34;100.00;100546.28;4953159;29;20121;-71
2023/12/08 02:54:47;;;;;;;1.60;0.90;;;;;;;4.34;100.00;100576.97;4953065;29;20058;-71
2023/12/08 02:57:13;;;;;;;1.33;0.82;;;;;;;4.21;100.00;100550.63;4953008;29;20036;-71
2023/12/08 02:59:38;;;;;;;1.27;0.80;;;;;;;4.25;100.00;100561.94;4952984;29;20027;-71
2023/12/08 03:02:04;;;;;;;2.20;0.82;;;;;;;4.22;100.00;100574.50;4952436;29;20047;-71
2023/12/08 03:04:29;;;;;;;2.08;0.82;;;;;;;4.27;100.00;100583.34;4952972;29;20039;-71
2023/12/08 03:06:55;;;;;;;0.70;0.70;;;;;;;3.66;100.00;100485.75;4952944;29;20090;-71
2023/12/08 03:09:20;;;;;;;4.10;1.02;;;;;;;4.23;100.00;100572.84;4935836;29;20038;-72
2023/12/08 03:11:46;;;;;;;3.65;1.73;;;;;;;4.15;100.00;100575.78;4952757;29;20401;-71
2023/12/08 03:14:11;;;;;;;5.70;1.60;;;;;;;4.08;100.00;100586.38;4952774;29;20035;-72
2023/12/08 03:16:37;;;;;;;4.13;2.00;;;;;;;4.02;100.00;100580.88;4934336;29;20054;-71
2023/12/08 03:19:02;;;;;;;2.67;1.60;;;;;;;4.05;100.00;100579.41;4952650;29;20031;-71
2023/12/08 03:21:28;;;;;;;2.55;1.27;;;;;;;3.47;100.00;100499.00;4952696;29;20042;-71
2023/12/08 03:23:53;;;;;;;2.65;1.33;;;;;;;3.89;100.00;100581.75;4952720;29;20038;-70
2023/12/08 03:26:19;;;;;;;3.13;1.88;;;;;;;3.88;100.00;100572.31;4952672;29;20039;-71
2023/12/08 03:28:45;;;;;;;6.97;4.13;;;;;;;3.73;100.00;100560.31;4952625;29;20405;-71
2023/12/08 03:31:24;;;;;;;10.00;6.78;;;;;;;3.70;100.00;100555.00;4952203;29;20114;-71
2023/12/08 03:33:50;;;;;;;17.70;10.23;;;;;;;3.22;100.00;100472.72;4952412;29;20081;-71
2023/12/08 03:36:15;;;;;;;11.50;6.55;;;;;;;3.75;100.00;100587.59;4952667;29;20449;-71
2023/12/08 03:38:40;;;;;;;5.78;2.85;;;;;;;3.71;100.00;100586.53;4943959;28;20078;-71
2023/12/08 03:41:06;;;;;;;3.42;1.80;;;;;;;3.67;100.00;100582.88;4952540;28;20653;-71
2023/12/08 03:43:31;;;;;;;2.70;1.50;;;;;;;3.76;100.00;100580.03;4939257;28;20035;-69
2023/12/08 03:45:57;;;;;;;2.63;1.38;;;;;;;3.42;100.00;100525.91;4933209;29;20414;-71
2023/12/08 03:48:23;;;;;;;1.95;1.10;;;;;;;3.81;100.00;100583.78;4933158;29;20023;-71
2023/12/08 03:50:48;;;;;;;1.10;1.00;;;;;;;3.86;100.00;100587.56;4933114;29;20410;-71
2023/12/08 03:53:14;;;;;;;1.15;1.00;;;;;;;3.53;100.00;100505.38;4915101;29;20438;-72
2023/12/08 03:55:39;;;;;;;2.45;1.30;;;;;;;3.88;100.00;100550.19;4933115;29;20317;-72
2023/12/08 03:58:04;;;;;;;5.32;1.77;;;;;;;4.13;100.00;100582.44;4932791;29;20027;-72
2023/12/08 04:00:30;;;;;;;4.63;2.03;;;;;;;3.70;100.00;100511.59;4932808;29;20031;-71
2023/12/08 04:02:55;;;;;;;5.25;2.00;;;;;;;4.26;100.00;100585.78;4932985;29;20052;-70
2023/12/08 04:05:21;;;;;;;5.50;2.25;;;;;;;4.33;100.00;100582.84;4933171;29;20031;-71
2023/12/08 04:07:46;;;;;;;5.10;2.42;;;;;;;4.29;100.00;100586.88;4931689;29;20040;-71
2023/12/08 04:10:12;;;;;;;6.50;2.75;;;;;;;4.32;100.00;100592.16;4933004;29;20036;-71
2023/12/08 04:12:37;;;;;;;5.72;2.50;;;;;;;4.31;100.00;100595.53;4933217;29;20119;-71
2023/12/08 04:15:03;;;;;;;4.18;2.13;;;;;;;4.30;100.00;100586.09;4932773;29;20031;-72
2023/12/08 04:17:29;;;;;;;5.47;2.75;;;;;;;4.29;100.00;100589.44;4933134;29;20031;-71
2023/12/08 04:19:54;;;;;;;6.75;2.80;;;;;;;4.28;100.00;100592.78;4933155;29;20032;-71
2023/12/08 04:22:20;;;;;;;6.55;3.00;;;;;;;4.32;100.00;100592.16;4933060;29;20126;-71
2023/12/08 04:24:45;;;;;;;4.47;2.80;;;;;;;4.40;100.00;100595.25;4932910;29;20398;-71
2023/12/08 04:27:10;;;;;;;8.77;4.05;;;;;;;4.48;100.00;100588.94;4933018;29;20031;-71
2023/12/08 04:29:36;;;;;;;7.45;3.25;;;;;;;4.58;100.00;100598.06;4932612;29;20474;-71
2023/12/08 04:32:02;;;;;;;5.00;2.85;;;;;;;4.57;100.00;100595.41;4933065;29;20031;-71
2023/12/08 04:34:27;;;;;;;9.77;5.20;;;;;;;4.32;100.00;100574.28;4930670;29;20044;-71
2023/12/08 04:36:53;;;;;;;11.07;6.35;;;;;;;4.45;100.00;100600.63;4932714;29;20035;-71
2023/12/08 04:39:19;;;;;;;11.75;6.72;;;;;;;4.32;100.00;100602.41;4932982;29;20442;-71
2023/12/08 04:41:44;;;;;;;14.20;6.57;;;;;;;4.24;100.00;100595.94;4932605;29;20039;-71
2023/12/08 04:44:10;;;;;;;10.10;6.55;;;;;;;4.10;100.00;100615.47;4932412;29;20032;-71
2023/12/08 04:46:36;;;;;;;13.90;7.72;;;;;;;4.00;100.00;100595.19;4933002;29;20039;-71
2023/12/08 04:49:01;;;;;;;9.43;6.15;;;;;;;3.92;100.00;100571.72;4934121;29;20042;-71
2023/12/08 04:51:27;;;;;;;11.50;6.15;;;;;;;3.49;100.00;100494.88;4936144;29;20236;-71
2023/12/08 04:53:52;;;;;;;10.02;5.63;;;;;;;4.13;100.00;100604.56;4936097;29;20035;-71
2023/12/08 04:56:18;;;;;;;10.40;5.70;;;;;;;4.09;100.00;100577.94;4940956;29;20032;-71
2023/12/08 04:58:43;;;;;;;8.10;5.30;;;;;;;4.34;100.00;100608.50;4954479;29;20442;-69
2023/12/08 05:01:13;;;;;;;12.35;4.50;;;;;;;4.48;100.00;100601.72;4955197;29;20597;-71
2023/12/08 05:03:39;;;;;;;10.43;4.60;;;;;;;4.45;100.00;100580.19;4954476;29;20066;-71
2023/12/08 05:06:04;;;;;;;7.30;4.65;;;;;;;4.56;100.00;100602.22;4954358;29;20374;-71
2023/12/08 05:08:30;;;;;;;9.55;4.65;;;;;;;4.65;100.00;100599.34;4937201;29;20027;-71
2023/12/08 05:10:55;;;;;;;6.65;4.60;;;;;;;4.69;100.00;100602.19;4953798;29;20086;-71
2023/12/08 05:13:21;;;;;;;8.40;4.78;;;;;;;4.75;100.00;100603.34;4953711;28;20031;-71
2023/12/08 05:15:46;;;;;;;7.32;4.68;;;;;;;4.25;100.00;100517.56;4954065;28;20405;-72
2023/12/08 05:18:12;;;;;;;7.80;4.75;;;;;;;4.75;100.00;100611.91;4954603;28;20070;-72
2023/12/08 05:20:37;;;;;;;9.60;4.97;;;;;;;4.70;100.00;100603.09;4954734;28;20409;-72
2023/12/08 05:23:03;;;;;;;9.13;5.22;;;;;;;4.31;100.00;100546.97;4954500;28;20035;-72
2023/12/08 05:25:28;;;;;;;9.25;5.20;;;;;;;4.65;100.00;100613.00;4954616;28;20035;-71
2023/12/08 05:27:54;;;;;;;8.25;5.45;;;;;;;4.18;100.00;100518.88;4954328;28;20043;-71
2023/12/08 05:30:19;;;;;;;9.65;5.47;;;;;;;4.71;100.00;100602.31;4954614;28;20046;-72
2023/12/08 05:32:45;;;;;;;7.13;5.15;;;;;;;4.75;100.00;100613.56;4954787;28;20395;-72
2023/12/08 05:35:10;;;;;;;8.02;5.65;;;;;;;4.68;100.00;100604.66;4954309;28;20034;-72
2023/12/08 05:37:35;;;;;;;7.32;5.20;;;;;;;4.58;100.00;100613.41;4954395;29;20027;-71
2023/12/08 05:40:01;;;;;;;7.95;5.45;;;;;;;4.54;100.00;100614.00;4954378;28;20042;-72
2023/12/08 05:42:27;;;;;;;8.52;4.88;;;;;;;4.00;100.00;100522.03;4954300;28;20122;-71
2023/12/08 05:44:52;;;;;;;13.32;5.70;;;;;;;4.42;100.00;100597.88;4954345;28;20433;-71
2023/12/08 05:47:17;;;;;;;9.52;5.28;;;;;;;4.55;100.00;100620.91;4954254;28;20108;-72
2023/12/08 05:49:43;;;;;;;7.30;5.53;;;;;;;4.58;100.00;100628.75;4954161;28;20027;-71
2023/12/08 05:52:09;;;;;;;9.13;5.63;;;;;;;4.53;100.00;100620.78;4954115;28;20032;-72
2023/12/08 05:54:35;;;;;;;9.60;5.60;;;;;;;4.06;100.00;100554.72;4954252;28;20042;-71
2023/12/08 05:57:00;;;;;;;12.13;6.93;;;;;;;4.47;100.00;100632.28;4953867;28;20106;-71
2023/12/08 05:59:26;;;;;;;13.60;7.47;;;;;;;4.23;100.00;100609.50;4954007;28;20515;-71
2023/12/08 06:01:51;;;;;;;14.95;7.68;;;;;;;4.38;100.00;100636.03;4936730;29;20063;-71
2023/12/08 06:04:17;;;;;;;11.77;7.25;;;;;;;3.93;100.00;100557.31;4901207;29;20425;-71
2023/12/08 06:06:42;;;;;;;13.50;7.97;;;;;;;4.44;100.00;100647.44;4934745;29;20031;-71
2023/12/08 06:09:08;;;;;;;14.07;7.32;;;;;;;4.42;100.00;100626.88;4934720;29;20091;-71
2023/12/08 06:11:33;;;;;;;11.27;7.57;;;;;;;4.27;100.00;100620.78;4934856;29;20550;-69
2023/12/08 06:13:59;;;;;;;12.80;7.55;;;;;;;4.21;100.00;100617.06;4934512;29;20035;-70
2023/12/08 06:16:25;;;;;;;10.00;7.07;;;;;;;4.24;100.00;100626.59;4916748;29;20040;-71
2023/12/08 06:18:51;;;;;;;8.75;6.18;;;;;;;4.24;100.00;100628.25;4934667;29;20110;-70
2023/12/08 06:21:17;;;;;;;8.70;5.65;;;;;;;4.21;100.00;100641.72;4916828;29;20123;-71
2023/12/08 06:23:42;;;;;;;12.27;5.60;;;;;;;4.23;100.00;100639.28;4934378;29;20569;-71
2023/12/08 06:26:08;;;;;;;7.65;4.05;;;;;;;4.21;100.00;100649.38;4935263;29;20032;-70
2023/12/08 06:28:33;;;;;;;5.40;3.25;;;;;;;4.23;100.00;100641.84;4936058;29;20445;-71
2023/12/08 06:30:59;;;;;;;4.10;2.70;;;;;;;4.29;100.00;100647.34;4953524;29;20069;-70
2023/12/08 06:33:24;;;;;;;3.72;2.53;;;;;;;4.18;100.00;100623.63;4953479;29;20508;-71
2023/12/08 06:35:50;;;;;;;3.55;2.60;;;;;;;4.34;100.00;100651.94;4953250;29;20035;-71
2023/12/08 06:38:15;;;;;;;2.63;1.90;;;;;;;4.36;100.00;100665.72;4951201;29;20094;-71
2023/12/08 06:40:41;;;;;;;3.15;2.17;;;;;;;4.43;100.00;100658.47;4953207;29;20031;-70
2023/12/08 06:43:07;;;;;;;2.72;2.03;;;;;;;4.49;100.00;100667.41;4953504;29;20042;-70
2023/12/08 06:45:33;;;;;;;5.13;2.80;;;;;;;4.54;100.00;100673.69;4953218;29;20474;-70
2023/12/08 06:47:58;;;;;;;6.07;2.50;;;;;;;4.58;100.00;100667.09;4936030;29;20074;-70
2023/12/08 06:50:24;;;;;;;4.65;2.30;;;;;;;4.62;100.00;100666.53;4953224;29;20434;-70
2023/12/08 06:52:51;;;;;;;3.25;2.33;;;;;;;4.00;100.00;100560.34;4952967;29;20031;-70
2023/12/08 06:55:18;;;;;;;3.72;2.30;;;;;;;4.68;100.00;100682.25;4952910;29;20486;-70
2023/12/08 06:57:43;;;;;;;3.40;2.15;;;;;;;4.71;100.00;100679.03;4952792;29;20031;-70
2023/12/08 07:00:10;;;;;;;2.88;2.10;;;;;;;4.68;100.00;100682.25;4953498;29;20078;-70
2023/12/08 07:02:36;;;;;;;2.97;2.13;;;;;;;4.56;100.00;100665.22;4952874;29;20069;-70
2023/12/08 07:05:02;;;;;;;5.75;2.28;;;;;;;4.69;100.00;100672.91;4952962;29;20038;-70
2023/12/08 07:07:27;;;;;;;6.05;2.97;;;;;;;4.75;100.00;100680.06;4953232;29;20035;-70
2023/12/08 07:09:53;;;;;;;4.68;2.60;;;;;;;3.75;100.00;100516.13;4952834;29;20102;-70
2023/12/08 07:12:18;;;;;;;4.13;2.40;;;;;;;4.17;100.00;100593.75;4952668;28;20074;-70
2023/12/08 07:14:44;;;;;;;5.15;3.40;;;;;;;4.33;100.00;100611.84;4951030;29;20039;-70
2023/12/08 07:17:09;;;;;;;6.28;2.80;;;;;;;4.25;100.00;100592.59;4952802;29;20035;-70
2023/12/08 07:19:38;;;;;;;3.92;2.50;;;;;;;4.83;100.00;100682.31;4952859;29;20689;-70
2023/12/08 07:22:04;;;;;;;4.00;2.25;;;;;;;4.80;100.00;100684.72;4952697;29;20105;-69
2023/12/08 07:24:29;;;;;;;5.53;2.70;;;;;;;4.74;100.00;100696.22;4952635;29;20116;-69
2023/12/08 07:26:55;;;;;;;3.60;2.17;;;;;;;4.72;100.00;100685.00;4952880;29;20110;-69
2023/12/08 07:29:24;;;;;;;4.57;2.42;;;;;;;4.65;100.00;100670.97;4952467;29;20155;-69
2023/12/08 07:31:49;;;;;;;4.73;2.40;;;;;;;4.77;100.00;100689.66;4952679;29;20023;-69
2023/12/08 07:34:15;;;;;;;4.63;2.38;;;;;;;4.77;100.00;100686.19;4935468;29;20270;-70
2023/12/08 07:36:40;;;;;;;3.70;2.20;;;;;;;4.79;100.00;100692.28;4952444;29;20019;-70
2023/12/08 07:39:09;;;;;;;3.08;2.10;;;;;;;4.79;100.00;100689.72;4935241;29;20493;-70
2023/12/08 07:41:35;;;;;;;4.68;2.40;;;;;;;4.47;100.00;100629.75;4952624;29;20031;-70
2023/12/08 07:44:01;;;;;;;4.00;2.47;;;;;;;4.83;100.00;100694.25;4952246;29;20082;-70
2023/12/08 07:46:27;;;;;;;4.35;2.63;;;;;;;4.82;100.00;100692.47;4952576;29;20031;-70
2023/12/08 07:48:52;;;;;;;3.35;2.00;;;;;;;4.84;100.00;100696.03;4952524;29;20105;-69
2023/12/08 07:51:19;;;;;;;4.43;2.15;;;;;;;4.71;100.00;100689.25;4952242;29;20491;-70
2023/12/08 07:53:44;;;;;;;4.05;2.30;;;;;;;4.54;100.00;100667.69;4952388;29;20580;-70
2023/12/08 07:56:12;;;;;;;7.65;4.05;;;;;;;4.70;100.00;100684.91;4952538;29;20075;-70
2023/12/08 07:58:37;;;;;;;4.88;2.95;;;;;;;4.69;100.00;100689.13;4952185;29;20406;-70
2023/12/08 08:01:03;;;;;;;9.43;4.00;;;;;;;4.45;100.00;100660.31;4952365;29;20054;-70
2023/12/08 08:03:29;;;;;;;6.32;3.33;;;;;;;4.63;100.00;100678.50;4952360;29;20059;-70
2023/12/08 08:05:54;;;;;;;4.63;2.53;;;;;;;4.48;100.00;100668.19;4952372;29;20037;-69
2023/12/08 08:08:21;;;;;;;3.92;2.42;;;;;;;4.24;100.00;100615.47;4951923;29;20059;-70
2023/12/08 08:10:47;;;;;;;4.43;2.88;;;;;;;4.59;100.00;100668.88;4952186;29;20031;-70
2023/12/08 08:13:12;;;;;;;4.13;2.63;;;;;;;4.69;100.00;100680.59;4952301;29;20037;-70
2023/12/08 08:15:38;;;;;;;4.80;2.50;;;;;;;4.80;100.00;100702.63;4952096;29;20032;-69
2023/12/08 08:18:03;;;;;;;5.20;2.92;;;;;;;4.87;100.00;100693.66;4952152;29;20027;-70
2023/12/08 08:20:29;;;;;;;3.33;2.30;;;;;;;4.84;100.00;100698.59;4952130;29;20409;-69
2023/12/08 08:22:55;;;;;;;5.30;2.45;;;;;;;4.86;100.00;100697.03;4951918;28;20031;-70
2023/12/08 08:25:20;;;;;;;7.88;3.08;;;;;;;4.88;100.00;100695.41;4955739;29;20118;-70
2023/12/08 08:27:46;;;;;;;5.15;2.92;;;;;;;4.78;100.00;100683.72;4955817;29;20119;-69
2023/12/08 08:30:12;;;;;;;5.18;2.65;;;;;;;4.75;100.00;100657.06;4955661;29;20035;-70
2023/12/08 08:32:37;;;;;;;3.83;2.40;;;;;;;4.95;100.00;100700.16;4955887;29;20075;-70
2023/12/08 08:35:03;;;;;;;4.78;2.78;;;;;;;4.94;100.00;100708.59;4955335;29;20075;-70
2023/12/08 08:37:29;;;;;;;4.55;2.58;;;;;;;4.99;100.00;100691.88;4955320;29;20032;-70
2023/12/08 08:39:54;;;;;;;5.25;2.20;;;;;;;4.95;100.00;100689.91;4955578;29;20023;-70
2023/12/08 08:42:20;;;;;;;3.00;1.85;;;;;;;4.96;100.00;100691.69;4955570;29;20047;-70
2023/12/08 08:44:45;;;;;;;2.80;1.85;;;;;;;5.00;100.00;100685.09;4955471;29;20035;-70
2023/12/08 08:47:12;;;;;;;2.95;1.92;;;;;;;5.02;100.00;100686.06;4955415;29;20048;-71
2023/12/08 08:49:38;;;;;;;3.95;1.85;;;;;;;4.93;100.00;100663.34;4955229;29;20027;-70
2023/12/08 08:52:03;;;;;;;1.98;1.48;;;;;;;5.07;100.00;100683.78;4955264;29;20085;-70
2023/12/08 08:54:29;;;;;;;1.90;1.30;;;;;;;5.04;100.00;100678.50;4955089;29;20027;-70
2023/12/08 08:56:55;;;;;;;2.03;1.40;;;;;;;5.08;100.00;100672.78;4955159;29;20062;-70
2023/12/08 08:59:22;;;;;;;3.97;1.50;;;;;;;5.04;100.00;100679.38;4955379;29;20036;-70
2023/12/08 09:01:47;;;;;;;2.00;1.50;;;;;;;4.49;100.00;100579.59;4954857;29;20098;-70
2023/12/08 09:04:13;;;;;;;1.90;1.35;;;;;;;4.90;100.00;100657.13;4920894;29;20039;-71
2023/12/08 09:06:38;;;;;;;2.78;1.60;;;;;;;4.04;100.00;100510.34;4954793;29;20037;-71
2023/12/08 09:09:04;;;;;;;2.15;1.50;;;;;;;5.07;100.00;100686.34;4955427;29;20474;-71
2023/12/08 09:11:30;;;;;;;2.63;1.52;;;;;;;5.11;100.00;100673.84;4954787;29;20471;-71
2023/12/08 09:13:57;;;;;;;3.67;1.70;;;;;;;4.90;100.00;100629.00;4954944;29;20035;-70
2023/12/08 09:16:22;;;;;;;3.60;1.70;;;;;;;5.16;100.00;100672.44;4954905;29;20529;-71
2023/12/08 09:18:48;;;;;;;2.25;1.73;;;;;;;5.12;100.00;100674.72;4937321;29;20035;-71
2023/12/08 09:21:13;;;;;;;1.40;1.30;;;;;;;4.44;100.00;100558.84;4954545;29;20129;-71
2023/12/08 09:23:39;;;;;;;2.58;1.50;;;;;;;5.07;100.00;100668.44;4954956;29;20473;-70
2023/12/08 09:26:07;;;;;;;1.42;1.30;;;;;;;5.00;100.00;100655.25;4914231;29;20040;-70
2023/12/08 09:28:34;;;;;;;2.35;1.60;;;;;;;4.98;100.00;100654.25;4914212;29;20055;-71
2023/12/08 09:31:00;;;;;;;2.53;1.20;;;;;;;5.03;100.00;100664.78;4914154;29;20067;-70
2023/12/08 09:33:26;;;;;;;2.40;1.10;;;;;;;5.04;100.00;100655.47;4914119;29;20495;-70
2023/12/08 09:35:52;;;;;;;2.05;1.30;;;;;;;4.90;100.00;100640.13;4913350;29;20046;-71
2023/12/08 09:38:19;;;;;;;2.03;1.17;;;;;;;5.04;100.00;100656.34;4913946;29;20041;-71
2023/12/08 09:40:46;;;;;;;5.97;1.52;;;;;;;5.00;100.00;100633.91;4913940;29;20044;-71
2023/12/08 09:43:18;;;;;;;5.32;1.40;;;;;;;4.88;100.00;100628.03;4914157;29;20482;-71
2023/12/08 09:45:46;;;;;;;3.05;1.25;;;;;;;5.06;100.00;100658.97;4913803;29;20111;-71
2023/12/08 09:48:12;;;;;;;5.50;1.63;;;;;;;4.98;100.00;100631.25;4913695;29;20040;-71
2023/12/08 09:50:39;;;;;;;2.35;1.60;;;;;;;5.14;100.00;100642.44;4913829;29;20036;-71
2023/12/08 09:53:05;;;;;;;2.58;1.25;;;;;;;4.95;100.00;100607.16;4866644;29;20052;-70
2023/12/08 09:55:32;;;;;;;4.18;2.08;;;;;;;5.08;100.00;100639.50;4913937;29;20095;-70
2023/12/08 09:58:00;;;;;;;5.93;2.67;;;;;;;5.07;100.00;100622.38;4948620;29;20073;-70
2023/12/08 10:00:30;;;;;;;4.97;2.60;;;;;;;5.21;100.00;100638.56;4937227;29;20031;-70
2023/12/08 10:02:55;;;;;;;3.95;1.65;;;;;;;5.23;100.00;100632.75;4953923;29;20137;-70
2023/12/08 10:05:21;;;;;;;4.18;1.40;;;;;;;4.67;100.00;100536.38;4953906;29;20114;-70
2023/12/08 10:07:50;;;;;;;1.73;1.13;;;;;;;5.25;100.00;100625.19;4954161;29;20027;-70
2023/12/08 10:10:16;;;;;;;1.63;1.13;;;;;;;5.26;100.00;100626.94;4953952;29;20027;-70
2023/12/08 10:12:42;;;;;;;3.10;1.20;;;;;;;4.97;100.00;100586.00;4953902;29;20046;-70
2023/12/08 10:15:10;;;;;;;1.88;0.80;;;;;;;5.12;100.00;100610.75;4953610;29;20072;-70
2023/12/08 10:17:51;;;;;;;1.58;1.17;;;;;;;4.71;100.00;100538.38;4953438;29;20031;-70
2023/12/08 10:20:18;;;;;;;2.45;1.50;;;;;;;5.16;100.00;100617.84;4953870;29;20031;-71
2023/12/08 10:22:51;;;;;;;2.13;1.38;;;;;;;4.76;100.00;100552.31;4953981;29;20082;-70
2023/12/08 10:25:19;;;;;;;1.85;1.38;;;;;;;5.19;100.00;100621.44;4953594;29;20058;-70
2023/12/08 10:27:46;;;;;;;1.65;1.23;;;;;;;4.63;100.00;100517.41;4953525;29;20054;-70
2023/12/08 10:30:12;;;;;;;4.07;1.23;;;;;;;5.19;100.00;100616.31;4952877;29;20027;-71
2023/12/08 10:32:38;;;;;;;1.77;1.42;;;;;;;4.94;100.00;100559.34;4935408;29;20121;-71
2023/12/08 10:35:05;;;;;;;1.90;1.30;;;;;;;5.21;100.00;100619.00;4936356;29;20506;-71
2023/12/08 10:37:31;;;;;;;1.10;1.00;;;;;;;5.24;100.00;100619.16;4953227;29;20517;-71
2023/12/08 10:39:58;;;;;;;1.20;0.98;;;;;;;5.11;100.00;100588.50;4953365;29;20114;-71
2023/12/08 10:42:24;;;;;;;1.02;0.90;;;;;;;5.22;100.00;100607.97;4953247;29;20035;-71
2023/12/08 10:44:49;;;;;;;2.40;1.20;;;;;;;5.19;100.00;100605.22;4953506;29;20031;-70
2023/12/08 10:47:17;;;;;;;1.50;1.10;;;;;;;5.18;100.00;100599.22;4952610;28;20035;-71
2023/12/08 10:49:43;;;;;;;2.40;1.20;;;;;;;5.25;100.00;100600.47;4953121;29;20512;-70
2023/12/08 10:52:09;;;;;;;1.70;1.00;;;;;;;5.32;100.00;100597.50;4953117;29;20035;-71
2023/12/08 10:54:35;;;;;;;2.35;1.40;;;;;;;5.31;100.00;100595.72;4953170;29;20517;-71
2023/12/08 10:57:01;;;;;;;4.00;1.63;;;;;;;4.85;100.00;100518.75;4952453;29;20039;-71
2023/12/08 10:59:28;;;;;;;2.67;1.40;;;;;;;5.28;100.00;100597.19;4953247;29;20433;-71
2023/12/08 11:01:57;;;;;;;6.80;2.17;;;;;;;5.26;100.00;100588.53;4952953;29;20099;-71
2023/12/08 11:04:26;;;;;;;1.83;1.30;;;;;;;4.99;100.00;100540.03;4952983;29;20023;-71
2023/12/08 11:07:03;;;;;;;1.95;1.23;;;;;;;5.27;100.00;100585.19;4952767;29;20038;-71
2023/12/08 11:09:34;;;;;;;1.00;1.00;;;;;;;5.25;100.00;100582.53;4952702;29;20117;-71
2023/12/08 11:12:04;;;;;;;1.25;1.00;;;;;;;5.29;100.00;100581.94;4953081;29;20046;-70
2023/12/08 11:14:42;;;;;;;1.35;1.10;;;;;;;5.33;100.00;100580.44;4952708;29;20023;-70
2023/12/08 11:17:21;;;;;;;0.75;0.75;;;;;;;5.21;100.00;100569.47;4952430;29;20036;-70
2023/12/08 11:19:46;;;;;;;0.98;0.88;;;;;;;5.13;100.00;100559.63;4952589;29;20035;-70